sensor_id;sensor_type;location;lat;lon;timestamp;pressure;altitude;pressure_sealevel;temperature;humidity
18569;BME280;14780;48.316;-1.050;2023-03-01T00:01:13;100052.00;;;23.67;28.90
18569;BME280;14780;48.316;-1.050;2023-03-01T00:03:59;100053.09;;;23.66;28.94
18569;BME280;14780;48.316;-1.050;2023-03-01T00:06:44;100050.59;;;23.65;28.89
18569;BME280;14780;48.316;-1.050;2023-03-01T00:09:30;100049.19;;;23.62;28.84
18569;BME280;14780;48.316;-1.050;2023-03-01T00:12:15;100056.00;;;23.60;28.90
18569;BME280;14780;48.316;-1.050;2023-03-01T00:15:00;100058.97;;;23.58;28.94
18569;BME280;14780;48.316;-1.050;2023-03-01T00:17:45;100059.44;;;23.55;28.84
18569;BME280;14780;48.316;-1.050;2023-03-01T00:20:30;100065.75;;;23.56;28.86
18569;BME280;14780;48.316;-1.050;2023-03-01T00:23:15;100065.41;;;23.52;28.79
18569;BME280;14780;48.316;-1.050;2023-03-01T00:25:59;100066.72;;;23.50;28.82
18569;BME280;14780;48.316;-1.050;2023-03-01T00:28:44;100073.03;;;23.50;28.88
18569;BME280;14780;48.316;-1.050;2023-03-01T00:31:31;100078.16;;;23.47;28.86
18569;BME280;14780;48.316;-1.050;2023-03-01T00:34:16;100078.97;;;23.47;28.84
18569;BME280;14780;48.316;-1.050;2023-03-01T00:37:02;100076.50;;;23.46;28.75
18569;BME280;14780;48.316;-1.050;2023-03-01T00:39:49;100077.25;;;23.42;28.76
18569;BME280;14780;48.316;-1.050;2023-03-01T00:42:35;100076.41;;;23.41;28.70
18569;BME280;14780;48.316;-1.050;2023-03-01T00:45:19;100075.00;;;23.38;28.73
18569;BME280;14780;48.316;-1.050;2023-03-01T00:48:04;100072.50;;;23.37;28.80
18569;BME280;14780;48.316;-1.050;2023-03-01T00:50:49;100071.69;;;23.37;28.75
18569;BME280;14780;48.316;-1.050;2023-03-01T00:53:34;100063.72;;;23.35;28.79
18569;BME280;14780;48.316;-1.050;2023-03-01T00:56:20;100060.19;;;23.35;28.83
18569;BME280;14780;48.316;-1.050;2023-03-01T00:59:05;100059.56;;;23.33;28.78
18569;BME280;14780;48.316;-1.050;2023-03-01T01:01:49;100056.03;;;23.32;28.71
18569;BME280;14780;48.316;-1.050;2023-03-01T01:04:34;100049.97;;;23.30;28.79
18569;BME280;14780;48.316;-1.050;2023-03-01T01:07:19;100049.16;;;23.30;28.67
18569;BME280;14780;48.316;-1.050;2023-03-01T01:10:05;100048.31;;;23.29;28.68
18569;BME280;14780;48.316;-1.050;2023-03-01T01:12:49;100052.13;;;23.28;28.63
18569;BME280;14780;48.316;-1.050;2023-03-01T01:15:34;100047.75;;;23.27;28.71
18569;BME280;14780;48.316;-1.050;2023-03-01T01:18:19;100048.81;;;23.26;28.63
18569;BME280;14780;48.316;-1.050;2023-03-01T01:21:06;100050.13;;;23.24;28.68
18569;BME280;14780;48.316;-1.050;2023-03-01T01:23:52;100044.66;;;23.24;28.68
18569;BME280;14780;48.316;-1.050;2023-03-01T01:26:38;100046.31;;;23.25;28.72
18569;BME280;14780;48.316;-1.050;2023-03-01T01:29:22;100053.44;;;23.26;28.62
18569;BME280;14780;48.316;-1.050;2023-03-01T01:32:07;100048.47;;;23.23;28.72
18569;BME280;14780;48.316;-1.050;2023-03-01T01:34:51;100058.09;;;23.25;28.64
18569;BME280;14780;48.316;-1.050;2023-03-01T01:37:36;100051.78;;;23.25;28.71
18569;BME280;14780;48.316;-1.050;2023-03-01T01:40:21;100049.28;;;23.23;28.67
18569;BME280;14780;48.316;-1.050;2023-03-01T01:43:07;100047.16;;;23.25;28.67
18569;BME280;14780;48.316;-1.050;2023-03-01T01:49:07;100044.66;;;23.24;28.56
18569;BME280;14780;48.316;-1.050;2023-03-01T01:52:17;100051.78;;;23.25;28.59
18569;BME280;14780;48.316;-1.050;2023-03-01T01:55:07;100047.63;;;23.22;28.58
18569;BME280;14780;48.316;-1.050;2023-03-01T01:58:02;100050.13;;;23.24;28.47
18569;BME280;14780;48.316;-1.050;2023-03-01T02:00:49;100044.66;;;23.24;28.51
18569;BME280;14780;48.316;-1.050;2023-03-01T02:03:36;100045.19;;;23.21;28.49
18569;BME280;14780;48.316;-1.050;2023-03-01T02:06:37;100039.22;;;23.24;28.46
18569;BME280;14780;48.316;-1.050;2023-03-01T02:09:23;100040.53;;;23.21;28.50
18569;BME280;14780;48.316;-1.050;2023-03-01T02:12:08;100034.81;;;23.23;28.54
18569;BME280;14780;48.316;-1.050;2023-03-01T02:14:53;100034.81;;;23.23;28.53
18569;BME280;14780;48.316;-1.050;2023-03-01T02:17:38;100038.63;;;23.22;28.57
18569;BME280;14780;48.316;-1.050;2023-03-01T02:21:04;100033.00;;;23.28;28.47
18569;BME280;14780;48.316;-1.050;2023-03-01T02:23:52;100019.03;;;23.25;28.56
18569;BME280;14780;48.316;-1.050;2023-03-01T02:26:48;100029.13;;;23.24;28.48
18569;BME280;14780;48.316;-1.050;2023-03-01T02:29:34;100024.47;;;23.25;28.52
18569;BME280;14780;48.316;-1.050;2023-03-01T02:32:20;100022.59;;;23.25;28.50
18569;BME280;14780;48.316;-1.050;2023-03-01T02:35:12;100024.25;;;23.26;28.50
18569;BME280;14780;48.316;-1.050;2023-03-01T02:38:00;100019.03;;;23.25;28.40
18569;BME280;14780;48.316;-1.050;2023-03-01T02:40:46;100011.66;;;23.25;28.48
18569;BME280;14780;48.316;-1.050;2023-03-01T02:43:33;100003.72;;;23.24;28.52
18569;BME280;14780;48.316;-1.050;2023-03-01T02:46:21;100003.72;;;23.24;28.47
18569;BME280;14780;48.316;-1.050;2023-03-01T02:55:09;100005.38;;;23.25;28.48
18569;BME280;14780;48.316;-1.050;2023-03-01T02:57:56;99999.09;;;23.24;28.42
18569;BME280;14780;48.316;-1.050;2023-03-01T03:00:42;100000.97;;;23.24;28.47
18569;BME280;14780;48.316;-1.050;2023-03-01T03:03:31;99988.41;;;23.23;28.43
18569;BME280;14780;48.316;-1.050;2023-03-01T03:06:15;99985.91;;;23.21;28.39
18569;BME280;14780;48.316;-1.050;2023-03-01T03:09:00;99990.28;;;23.22;28.53
18569;BME280;14780;48.316;-1.050;2023-03-01T03:11:45;99983.44;;;23.20;28.45
18569;BME280;14780;48.316;-1.050;2023-03-01T03:14:29;99984.25;;;23.20;28.36
18569;BME280;14780;48.316;-1.050;2023-03-01T03:17:14;99986.41;;;23.18;28.38
18569;BME280;14780;48.316;-1.050;2023-03-01T03:19:59;99983.44;;;23.20;28.43
18569;BME280;14780;48.316;-1.050;2023-03-01T03:22:47;99976.81;;;23.16;28.36
18569;BME280;14780;48.316;-1.050;2023-03-01T03:25:32;99973.47;;;23.14;28.33
18569;BME280;14780;48.316;-1.050;2023-03-01T03:28:22;99972.63;;;23.13;28.27
18569;BME280;14780;48.316;-1.050;2023-03-01T03:31:07;99977.28;;;23.13;28.43
18569;BME280;14780;48.316;-1.050;2023-03-01T03:33:52;99970.16;;;23.12;28.32
18569;BME280;14780;48.316;-1.050;2023-03-01T03:36:36;99968.75;;;23.09;28.30
18569;BME280;14780;48.316;-1.050;2023-03-01T03:39:22;99976.13;;;23.09;28.24
18569;BME280;14780;48.316;-1.050;2023-03-01T03:42:07;99966.50;;;23.06;28.30
18569;BME280;14780;48.316;-1.050;2023-03-01T03:44:52;99962.38;;;23.04;28.39
18569;BME280;14780;48.316;-1.050;2023-03-01T03:47:36;99952.53;;;23.03;28.28
18569;BME280;14780;48.316;-1.050;2023-03-01T03:50:21;99952.75;;;23.01;28.29
18569;BME280;14780;48.316;-1.050;2023-03-01T03:53:11;99949.22;;;23.01;28.32
18569;BME280;14780;48.316;-1.050;2023-03-01T03:55:55;99951.09;;;23.00;28.26
18569;BME280;14780;48.316;-1.050;2023-03-01T03:58:40;99948.66;;;22.99;28.29
18569;BME280;14780;48.316;-1.050;2023-03-01T04:01:25;99939.84;;;22.97;28.36
18569;BME280;14780;48.316;-1.050;2023-03-01T04:04:10;99936.56;;;22.95;28.36
18569;BME280;14780;48.316;-1.050;2023-03-01T04:06:54;99934.91;;;22.94;28.24
18569;BME280;14780;48.316;-1.050;2023-03-01T04:09:39;99931.31;;;22.93;28.24
18569;BME280;14780;48.316;-1.050;2023-03-01T04:12:26;99929.91;;;22.91;28.16
18569;BME280;14780;48.316;-1.050;2023-03-01T04:15:11;99926.13;;;22.92;28.33
18569;BME280;14780;48.316;-1.050;2023-03-01T04:17:59;99918.19;;;22.90;28.31
18569;BME280;14780;48.316;-1.050;2023-03-01T04:20:44;99935.88;;;22.88;28.22
18569;BME280;14780;48.316;-1.050;2023-03-01T04:23:29;99936.97;;;22.87;28.20
18569;BME280;14780;48.316;-1.050;2023-03-01T04:26:14;99925.19;;;22.86;28.28
18569;BME280;14780;48.316;-1.050;2023-03-01T04:28:58;99933.38;;;22.86;28.16
18569;BME280;14780;48.316;-1.050;2023-03-01T04:31:44;99929.84;;;22.86;28.15
18569;BME280;14780;48.316;-1.050;2023-03-01T04:34:29;99935.31;;;22.86;28.28
18569;BME280;14780;48.316;-1.050;2023-03-01T04:37:13;99934.72;;;22.84;28.31
18569;BME280;14780;48.316;-1.050;2023-03-01T04:40:01;99930.66;;;22.86;28.31
18569;BME280;14780;48.316;-1.050;2023-03-01T04:42:57;99927.13;;;22.86;28.25
18569;BME280;14780;48.316;-1.050;2023-03-01T04:45:42;99928.78;;;22.87;28.30
18569;BME280;14780;48.316;-1.050;2023-03-01T04:48:27;99936.72;;;22.88;28.33
18569;BME280;14780;48.316;-1.050;2023-03-01T04:51:12;99930.41;;;22.88;28.24
18569;BME280;14780;48.316;-1.050;2023-03-01T04:53:58;99924.97;;;22.88;28.44
18569;BME280;14780;48.316;-1.050;2023-03-01T04:56:43;99919.50;;;22.88;28.24
18569;BME280;14780;48.316;-1.050;2023-03-01T04:59:27;99924.97;;;22.88;28.26
18569;BME280;14780;48.316;-1.050;2023-03-01T05:02:12;99923.31;;;22.87;28.27
18569;BME280;14780;48.316;-1.050;2023-03-01T05:04:57;99910.25;;;22.89;28.28
18569;BME280;14780;48.316;-1.050;2023-03-01T05:07:42;99905.88;;;22.88;28.20
18569;BME280;14780;48.316;-1.050;2023-03-01T05:10:28;99909.09;;;22.85;28.24
18569;BME280;14780;48.316;-1.050;2023-03-01T05:13:16;99902.56;;;22.86;28.29
18569;BME280;14780;48.316;-1.050;2023-03-01T05:16:06;99895.19;;;22.86;28.27
18569;BME280;14780;48.316;-1.050;2023-03-01T05:18:55;99900.41;;;22.88;28.23
18569;BME280;14780;48.316;-1.050;2023-03-01T05:21:42;99899.56;;;22.87;28.26
18569;BME280;14780;48.316;-1.050;2023-03-01T05:24:46;99901.47;;;22.87;28.29
18569;BME280;14780;48.316;-1.050;2023-03-01T05:27:31;99901.47;;;22.87;28.29
18569;BME280;14780;48.316;-1.050;2023-03-01T05:30:16;99906.44;;;22.90;28.18
18569;BME280;14780;48.316;-1.050;2023-03-01T05:33:02;99908.09;;;22.91;28.30
18569;BME280;14780;48.316;-1.050;2023-03-01T05:35:47;99905.63;;;22.89;28.30
18569;BME280;14780;48.316;-1.050;2023-03-01T05:38:33;99908.09;;;22.91;28.23
18569;BME280;14780;48.316;-1.050;2023-03-01T05:41:18;99911.09;;;22.89;28.11
18569;BME280;14780;48.316;-1.050;2023-03-01T05:44:03;99907.28;;;22.90;28.29
18569;BME280;14780;48.316;-1.050;2023-03-01T05:46:49;99907.50;;;22.89;28.23
18569;BME280;14780;48.316;-1.050;2023-03-01T05:49:34;99901.25;;;22.88;28.19
18569;BME280;14780;48.316;-1.050;2023-03-01T05:52:19;99908.59;;;22.88;28.15
18569;BME280;14780;48.316;-1.050;2023-03-01T05:55:04;99896.59;;;22.89;28.16
18569;BME280;14780;48.316;-1.050;2023-03-01T05:57:49;99900.41;;;22.88;28.20
18569;BME280;14780;48.316;-1.050;2023-03-01T06:00:37;99901.81;;;22.90;28.23
18569;BME280;14780;48.316;-1.050;2023-03-01T06:03:22;99894.72;;;22.89;28.21
18569;BME280;14780;48.316;-1.050;2023-03-01T06:06:06;99898.25;;;22.90;28.15
18569;BME280;14780;48.316;-1.050;2023-03-01T06:08:52;99896.59;;;22.89;28.20
18569;BME280;14780;48.316;-1.050;2023-03-01T06:11:37;99898.25;;;22.90;28.21
18569;BME280;14780;48.316;-1.050;2023-03-01T06:14:22;99897.69;;;22.88;28.22
18569;BME280;14780;48.316;-1.050;2023-03-01T06:17:07;99898.53;;;22.88;28.27
18569;BME280;14780;48.316;-1.050;2023-03-01T06:19:51;99892.78;;;22.90;28.17
18569;BME280;14780;48.316;-1.050;2023-03-01T06:22:36;99889.25;;;22.89;28.23
18569;BME280;14780;48.316;-1.050;2023-03-01T06:25:25;99897.44;;;22.89;28.16
18569;BME280;14780;48.316;-1.050;2023-03-01T06:28:11;99901.81;;;22.90;28.19
18569;BME280;14780;48.316;-1.050;2023-03-01T06:30:55;99906.44;;;22.90;28.37
18569;BME280;14780;48.316;-1.050;2023-03-01T06:33:40;99896.94;;;22.92;28.38
18569;BME280;14780;48.316;-1.050;2023-03-01T06:36:25;99909.25;;;22.95;28.50
18569;BME280;14780;48.316;-1.050;2023-03-01T06:39:10;99915.28;;;22.97;28.52
18569;BME280;14780;48.316;-1.050;2023-03-01T06:41:54;99904.66;;;22.95;28.50
18569;BME280;14780;48.316;-1.050;2023-03-01T06:44:39;99910.34;;;22.94;28.37
18569;BME280;14780;48.316;-1.050;2023-03-01T06:47:24;99911.88;;;22.90;28.38
18569;BME280;14780;48.316;-1.050;2023-03-01T06:50:09;99906.09;;;22.86;28.36
18569;BME280;14780;48.316;-1.050;2023-03-01T06:52:57;99907.75;;;22.87;28.37
18569;BME280;14780;48.316;-1.050;2023-03-01T06:55:42;99909.09;;;22.85;28.38
18569;BME280;14780;48.316;-1.050;2023-03-01T06:58:27;99910.16;;;22.84;28.39
18569;BME280;14780;48.316;-1.050;2023-03-01T07:01:12;99907.09;;;22.80;28.34
18569;BME280;14780;48.316;-1.050;2023-03-01T07:03:57;99903.31;;;22.81;28.42
18569;BME280;14780;48.316;-1.050;2023-03-01T07:06:42;99906.03;;;22.81;28.46
18569;BME280;14780;48.316;-1.050;2023-03-01T07:09:26;99903.31;;;22.81;28.37
18569;BME280;14780;48.316;-1.050;2023-03-01T07:12:12;99904.84;;;22.77;28.61
18569;BME280;14780;48.316;-1.050;2023-03-01T07:14:57;99907.81;;;22.76;28.57
18569;BME280;14780;48.316;-1.050;2023-03-01T07:17:41;99904.50;;;22.74;28.54
18569;BME280;14780;48.316;-1.050;2023-03-01T07:20:26;99901.78;;;22.74;28.66
18569;BME280;14780;48.316;-1.050;2023-03-01T07:23:11;99903.44;;;22.75;28.56
18569;BME280;14780;48.316;-1.050;2023-03-01T07:25:56;99905.09;;;22.76;28.65
18569;BME280;14780;48.316;-1.050;2023-03-01T07:28:40;99905.09;;;22.76;28.59
18569;BME280;14780;48.316;-1.050;2023-03-01T07:31:25;99904.28;;;22.75;28.60
18569;BME280;14780;48.316;-1.050;2023-03-01T07:34:12;99902.63;;;22.74;28.63
18569;BME280;14780;48.316;-1.050;2023-03-01T07:36:56;99896.31;;;22.74;28.60
18569;BME280;14780;48.316;-1.050;2023-03-01T07:39:41;99898.72;;;22.70;28.48
18569;BME280;14780;48.316;-1.050;2023-03-01T07:42:26;99902.53;;;22.69;28.58
18569;BME280;14780;48.316;-1.050;2023-03-01T07:45:11;99894.34;;;22.69;28.71
18569;BME280;14780;48.316;-1.050;2023-03-01T07:47:57;99910.13;;;22.67;28.66
18569;BME280;14780;48.316;-1.050;2023-03-01T07:50:42;99908.47;;;22.66;28.69
18569;BME280;14780;48.316;-1.050;2023-03-01T07:53:27;99914.19;;;22.65;28.78
18569;BME280;14780;48.316;-1.050;2023-03-01T07:56:13;99906.56;;;22.67;28.87
18569;BME280;14780;48.316;-1.050;2023-03-01T07:58:59;99909.88;;;22.69;29.00
18569;BME280;14780;48.316;-1.050;2023-03-01T08:01:44;99908.91;;;22.75;28.93
18569;BME280;14780;48.316;-1.050;2023-03-01T08:04:29;99914.44;;;22.80;29.11
18569;BME280;14780;48.316;-1.050;2023-03-01T08:07:13;99910.41;;;22.82;29.20
18569;BME280;14780;48.316;-1.050;2023-03-01T08:09:58;99912.41;;;22.87;29.31
18569;BME280;14780;48.316;-1.050;2023-03-01T08:12:43;99902.63;;;22.91;29.47
18569;BME280;14780;48.316;-1.050;2023-03-01T08:15:27;99908.09;;;22.91;29.49
18569;BME280;14780;48.316;-1.050;2023-03-01T08:18:12;99907.03;;;22.92;29.55
18569;BME280;14780;48.316;-1.050;2023-03-01T08:21:01;99903.47;;;22.91;29.51
18569;BME280;14780;48.316;-1.050;2023-03-01T08:23:46;99897.16;;;22.91;29.56
18569;BME280;14780;48.316;-1.050;2023-03-01T08:26:31;99891.13;;;22.89;29.58
18569;BME280;14780;48.316;-1.050;2023-03-01T08:29:16;99887.34;;;22.90;29.64
18569;BME280;14780;48.316;-1.050;2023-03-01T08:32:01;99886.53;;;22.89;29.52
18569;BME280;14780;48.316;-1.050;2023-03-01T08:34:49;99884.59;;;22.90;29.64
18569;BME280;14780;48.316;-1.050;2023-03-01T08:37:34;99881.53;;;22.86;29.58
18569;BME280;14780;48.316;-1.050;2023-03-01T08:40:18;99887.84;;;22.87;29.67
18569;BME280;14780;48.316;-1.050;2023-03-01T08:43:03;99888.91;;;22.86;29.63
18569;BME280;14780;48.316;-1.050;2023-03-01T08:45:49;99886.19;;;22.86;29.56
18569;BME280;14780;48.316;-1.050;2023-03-01T08:48:34;99887.00;;;22.86;29.70
18569;BME280;14780;48.316;-1.050;2023-03-01T08:51:20;99882.38;;;22.87;29.47
18569;BME280;14780;48.316;-1.050;2023-03-01T08:54:07;99878.81;;;22.86;29.41
18569;BME280;14780;48.316;-1.050;2023-03-01T08:56:52;99878.47;;;22.83;29.50
18569;BME280;14780;48.316;-1.050;2023-03-01T08:59:37;99879.81;;;22.80;29.41
18569;BME280;14780;48.316;-1.050;2023-03-01T09:02:21;99885.75;;;22.77;29.37
18569;BME280;14780;48.316;-1.050;2023-03-01T09:05:06;99886.00;;;22.76;29.40
18569;BME280;14780;48.316;-1.050;2023-03-01T09:07:51;99885.66;;;22.72;29.37
18569;BME280;14780;48.316;-1.050;2023-03-01T09:10:38;99883.75;;;22.73;29.41
18569;BME280;14780;48.316;-1.050;2023-03-01T09:13:24;99891.94;;;22.73;29.32
18569;BME280;14780;48.316;-1.050;2023-03-01T09:16:10;99889.47;;;22.71;29.40
18569;BME280;14780;48.316;-1.050;2023-03-01T09:18:55;99878.81;;;22.70;29.36
18569;BME280;14780;48.316;-1.050;2023-03-01T09:21:40;99878.81;;;22.70;29.33
18569;BME280;14780;48.316;-1.050;2023-03-01T09:24:25;99884.28;;;22.70;29.42
18569;BME280;14780;48.316;-1.050;2023-03-01T09:27:10;99883.44;;;22.69;29.26
18569;BME280;14780;48.316;-1.050;2023-03-01T09:29:57;99878.22;;;22.68;29.39
18569;BME280;14780;48.316;-1.050;2023-03-01T09:32:41;99879.28;;;22.67;29.30
18569;BME280;14780;48.316;-1.050;2023-03-01T09:35:27;99867.28;;;22.68;29.43
18569;BME280;14780;48.316;-1.050;2023-03-01T09:38:15;99876.31;;;22.68;29.50
18569;BME280;14780;48.316;-1.050;2023-03-01T09:41:01;99864.00;;;22.66;29.26
18569;BME280;14780;48.316;-1.050;2023-03-01T09:43:52;99866.16;;;22.64;29.20
18569;BME280;14780;48.316;-1.050;2023-03-01T09:46:42;99860.94;;;22.62;29.20
18569;BME280;14780;48.316;-1.050;2023-03-01T09:49:39;99859.03;;;22.63;29.16
18569;BME280;14780;48.316;-1.050;2023-03-01T09:53:04;99855.25;;;22.64;29.19
18569;BME280;14780;48.316;-1.050;2023-03-01T09:56:04;99864.75;;;22.61;29.22
18569;BME280;14780;48.316;-1.050;2023-03-01T10:04:51;99857.13;;;22.63;29.19
18569;BME280;14780;48.316;-1.050;2023-03-01T10:10:27;99859.28;;;22.61;29.11
18569;BME280;14780;48.316;-1.050;2023-03-01T10:13:25;99858.44;;;22.61;29.29
18569;BME280;14780;48.316;-1.050;2023-03-01T10:16:18;99858.44;;;22.61;29.15
18569;BME280;14780;48.316;-1.050;2023-03-01T10:19:09;99850.53;;;22.59;29.08
18569;BME280;14780;48.316;-1.050;2023-03-01T10:22:01;99843.38;;;22.58;29.18
18569;BME280;14780;48.316;-1.050;2023-03-01T10:24:47;99841.34;;;22.65;28.94
18569;BME280;14780;48.316;-1.050;2023-03-01T10:30:36;99846.22;;;22.63;29.11
18569;BME280;14780;48.316;-1.050;2023-03-01T10:33:24;99832.00;;;22.61;29.15
18569;BME280;14780;48.316;-1.050;2023-03-01T10:36:11;99831.78;;;22.63;29.14
18569;BME280;14780;48.316;-1.050;2023-03-01T10:38:57;99822.75;;;22.62;29.01
18569;BME280;14780;48.316;-1.050;2023-03-01T10:44:39;99814.31;;;22.64;29.04
18569;BME280;14780;48.316;-1.050;2023-03-01T10:47:28;99809.69;;;22.64;29.17
18569;BME280;14780;48.316;-1.050;2023-03-01T10:50:21;99815.97;;;22.65;29.06
18569;BME280;14780;48.316;-1.050;2023-03-01T10:56:14;99813.47;;;22.63;29.06
18569;BME280;14780;48.316;-1.050;2023-03-01T10:59:05;99815.13;;;22.64;28.95
18569;BME280;14780;48.316;-1.050;2023-03-01T11:02:15;99812.16;;;22.66;29.00
18569;BME280;14780;48.316;-1.050;2023-03-01T11:05:21;99805.41;;;22.68;28.95
18569;BME280;14780;48.316;-1.050;2023-03-01T11:08:08;99812.41;;;22.64;28.92
18569;BME280;14780;48.316;-1.050;2023-03-01T11:11:49;99809.44;;;22.66;28.82
18569;BME280;14780;48.316;-1.050;2023-03-01T11:14:16;99803.41;;;22.64;28.76
18569;BME280;14780;48.316;-1.050;2023-03-01T11:20:05;99787.84;;;22.64;28.61
18569;BME280;14780;48.316;-1.050;2023-03-01T11:22:54;99792.50;;;22.64;28.65
18569;BME280;14780;48.316;-1.050;2023-03-01T11:25:46;99793.06;;;22.66;28.59
18569;BME280;14780;48.316;-1.050;2023-03-01T11:28:33;99789.28;;;22.67;28.57
18569;BME280;14780;48.316;-1.050;2023-03-01T11:31:21;99784.38;;;22.69;28.54
18569;BME280;14780;48.316;-1.050;2023-03-01T11:34:12;99774.31;;;22.69;28.54
18569;BME280;14780;48.316;-1.050;2023-03-01T11:37:03;99771.34;;;22.71;28.49
18569;BME280;14780;48.316;-1.050;2023-03-01T11:39:59;99775.16;;;22.70;28.50
18569;BME280;14780;48.316;-1.050;2023-03-01T11:46:02;99779.34;;;22.77;28.60
18569;BME280;14780;48.316;-1.050;2023-03-01T11:51:59;99779.78;;;22.86;28.69
18569;BME280;14780;48.316;-1.050;2023-03-01T11:58:11;99767.34;;;22.95;28.94
18569;BME280;14780;48.316;-1.050;2023-03-01T12:01:21;99776.09;;;22.97;28.57
18569;BME280;14780;48.316;-1.050;2023-03-01T12:10:23;99769.84;;;22.96;28.55
18569;BME280;14780;48.316;-1.050;2023-03-01T12:16:20;99756.75;;;22.98;28.54
18569;BME280;14780;48.316;-1.050;2023-03-01T12:19:13;99744.09;;;23.09;28.50
18569;BME280;14780;48.316;-1.050;2023-03-01T12:43:13;99716.88;;;23.14;28.35
18569;BME280;14780;48.316;-1.050;2023-03-01T12:52:16;99707.50;;;23.26;28.39
18569;BME280;14780;48.316;-1.050;2023-03-01T12:55:15;99711.03;;;23.27;28.32
18569;BME280;14780;48.316;-1.050;2023-03-01T12:58:23;99704.84;;;23.31;28.38
18569;BME280;14780;48.316;-1.050;2023-03-01T13:04:24;99693.16;;;23.36;28.28
18569;BME280;14780;48.316;-1.050;2023-03-01T13:13:11;99683.75;;;23.48;28.21
18569;BME280;14780;48.316;-1.050;2023-03-01T13:15:57;99682.41;;;23.50;28.26
18569;BME280;14780;48.316;-1.050;2023-03-01T13:18:42;99680.50;;;23.51;28.12
18569;BME280;14780;48.316;-1.050;2023-03-01T13:21:31;99683.22;;;23.51;28.15
18569;BME280;14780;48.316;-1.050;2023-03-01T13:30:02;99673.22;;;23.56;28.16
18569;BME280;14780;48.316;-1.050;2023-03-01T13:32:50;99661.19;;;23.57;28.10
18569;BME280;14780;48.316;-1.050;2023-03-01T13:35:43;99661.75;;;23.59;28.17
18569;BME280;14780;48.316;-1.050;2023-03-01T13:44:34;99648.66;;;23.61;28.10
18569;BME280;14780;48.316;-1.050;2023-03-01T13:47:21;99657.94;;;23.60;27.98
18569;BME280;14780;48.316;-1.050;2023-03-01T13:50:06;99644.53;;;23.59;28.07
18569;BME280;14780;48.316;-1.050;2023-03-01T13:53:00;99649.19;;;23.58;28.01
18569;BME280;14780;48.316;-1.050;2023-03-01T13:55:49;99638.00;;;23.60;27.96
18569;BME280;14780;48.316;-1.050;2023-03-01T14:02:02;99625.16;;;23.60;27.90
18569;BME280;14780;48.316;-1.050;2023-03-01T14:04:57;99614.78;;;23.62;28.08
18569;BME280;14780;48.316;-1.050;2023-03-01T14:07:42;99615.88;;;23.61;27.95
18569;BME280;14780;48.316;-1.050;2023-03-01T14:10:35;99610.16;;;23.63;27.90
18569;BME280;14780;48.316;-1.050;2023-03-01T14:19:19;99611.56;;;23.65;28.00
18569;BME280;14780;48.316;-1.050;2023-03-01T14:22:18;99602.81;;;23.63;27.92
18569;BME280;14780;48.316;-1.050;2023-03-01T14:25:28;99598.97;;;23.64;27.94
18569;BME280;14780;48.316;-1.050;2023-03-01T14:31:00;99585.81;;;23.61;27.71
18569;BME280;14780;48.316;-1.050;2023-03-01T14:33:55;99598.16;;;23.64;27.75
18569;BME280;14780;48.316;-1.050;2023-03-01T14:36:40;99595.66;;;23.62;27.67
18569;BME280;14780;48.316;-1.050;2023-03-01T14:39:25;99590.19;;;23.62;27.68
18569;BME280;14780;48.316;-1.050;2023-03-01T14:42:11;99590.19;;;23.62;27.64
18569;BME280;14780;48.316;-1.050;2023-03-01T14:44:58;99579.56;;;23.61;27.57
18569;BME280;14780;48.316;-1.050;2023-03-01T14:47:45;99573.78;;;23.57;27.56
18569;BME280;14780;48.316;-1.050;2023-03-01T14:50:36;99575.69;;;23.57;27.46
18569;BME280;14780;48.316;-1.050;2023-03-01T14:53:29;99569.72;;;23.60;27.56
18569;BME280;14780;48.316;-1.050;2023-03-01T14:56:16;99565.91;;;23.61;27.51
18569;BME280;14780;48.316;-1.050;2023-03-01T14:59:04;99561.81;;;23.63;27.49
18569;BME280;14780;48.316;-1.050;2023-03-01T15:01:49;99562.13;;;23.67;27.46
18569;BME280;14780;48.316;-1.050;2023-03-01T15:04:35;99560.00;;;23.74;27.71
18569;BME280;14780;48.316;-1.050;2023-03-01T15:07:20;99554.84;;;23.77;27.71
18569;BME280;14780;48.316;-1.050;2023-03-01T15:10:07;99550.50;;;23.81;27.84
18569;BME280;14780;48.316;-1.050;2023-03-01T15:16:13;99532.56;;;23.90;27.83
18569;BME280;14780;48.316;-1.050;2023-03-01T15:19:05;99530.09;;;23.89;27.85
18569;BME280;14780;48.316;-1.050;2023-03-01T15:21:50;99526.53;;;23.88;27.79
18569;BME280;14780;48.316;-1.050;2023-03-01T15:24:36;99531.44;;;23.86;27.70
18569;BME280;14780;48.316;-1.050;2023-03-01T15:27:23;99533.34;;;23.86;27.73
18569;BME280;14780;48.316;-1.050;2023-03-01T15:30:22;99527.63;;;23.87;27.88
18569;BME280;14780;48.316;-1.050;2023-03-01T15:39:42;99524.88;;;23.87;27.75
18569;BME280;14780;48.316;-1.050;2023-03-01T15:48:23;99518.84;;;23.85;27.70
18569;BME280;14780;48.316;-1.050;2023-03-01T15:51:12;99514.47;;;23.84;27.76
18569;BME280;14780;48.316;-1.050;2023-03-01T15:54:01;99511.72;;;23.84;27.83
18569;BME280;14780;48.316;-1.050;2023-03-01T15:56:46;99512.31;;;23.86;27.87
18569;BME280;14780;48.316;-1.050;2023-03-01T15:59:31;99509.59;;;23.86;27.77
18569;BME280;14780;48.316;-1.050;2023-03-01T16:02:15;99495.91;;;23.86;27.66
18569;BME280;14780;48.316;-1.050;2023-03-01T16:05:01;99501.38;;;23.86;27.63
18569;BME280;14780;48.316;-1.050;2023-03-01T16:07:45;99497.56;;;23.87;27.75
18569;BME280;14780;48.316;-1.050;2023-03-01T16:10:30;99495.38;;;23.89;27.70
18569;BME280;14780;48.316;-1.050;2023-03-01T16:13:15;99491.00;;;23.88;27.71
18569;BME280;14780;48.316;-1.050;2023-03-01T16:16:02;99500.28;;;23.87;27.81
18569;BME280;14780;48.316;-1.050;2023-03-01T16:18:47;99493.50;;;23.90;27.80
18569;BME280;14780;48.316;-1.050;2023-03-01T16:21:32;99491.56;;;23.90;27.81
18569;BME280;14780;48.316;-1.050;2023-03-01T16:24:16;99485.84;;;23.92;27.82
18569;BME280;14780;48.316;-1.050;2023-03-01T16:27:01;99476.53;;;23.93;27.93
18569;BME280;14780;48.316;-1.050;2023-03-01T16:29:46;99483.94;;;23.92;27.85
18569;BME280;14780;48.316;-1.050;2023-03-01T16:32:31;99485.00;;;23.91;27.94
18569;BME280;14780;48.316;-1.050;2023-03-01T16:35:18;99488.56;;;23.92;27.83
18569;BME280;14780;48.316;-1.050;2023-03-01T16:38:03;99485.00;;;23.91;27.95